sensor_id;sensor_type;location;lat;lon;timestamp;pressure;altitude;pressure_sealevel;temperature;humidity
72548;BME280;60570;50.848;6.776;2024-03-25T00:00:34;99723.50;;;9.97;65.75
72548;BME280;60570;50.848;6.776;2024-03-25T00:01:36;99721.09;;;9.95;65.97
72548;BME280;60570;50.848;6.776;2024-03-25T00:02:36;99714.72;;;9.95;65.68
72548;BME280;60570;50.848;6.776;2024-03-25T00:03:37;99723.06;;;9.95;65.83
72548;BME280;60570;50.848;6.776;2024-03-25T00:04:37;99725.03;;;9.94;65.60
72548;BME280;60570;50.848;6.776;2024-03-25T00:05:39;99721.44;;;9.94;65.92
72548;BME280;60570;50.848;6.776;2024-03-25T00:06:39;99723.41;;;9.93;65.84
72548;BME280;60570;50.848;6.776;2024-03-25T00:07:40;99717.84;;;9.93;65.86
72548;BME280;60570;50.848;6.776;2024-03-25T00:08:40;99718.22;;;9.92;65.71
72548;BME280;60570;50.848;6.776;2024-03-25T00:09:42;99723.75;;;9.92;66.14
72548;BME280;60570;50.848;6.776;2024-03-25T00:10:42;99726.19;;;9.93;66.14
72548;BME280;60570;50.848;6.776;2024-03-25T00:11:44;99740.88;;;9.94;66.05
72548;BME280;60570;50.848;6.776;2024-03-25T00:12:45;99735.69;;;9.92;66.08
72548;BME280;60570;50.848;6.776;2024-03-25T00:13:46;99734.50;;;9.93;66.00
72548;BME280;60570;50.848;6.776;2024-03-25T00:14:47;99731.84;;;9.97;65.94
72548;BME280;60570;50.848;6.776;2024-03-25T00:15:47;99736.13;;;9.94;65.91
72548;BME280;60570;50.848;6.776;2024-03-25T00:16:48;99736.91;;;9.95;65.69
72548;BME280;60570;50.848;6.776;2024-03-25T00:17:48;99731.72;;;9.93;65.91
72548;BME280;60570;50.848;6.776;2024-03-25T00:18:50;99732.09;;;9.92;66.13
72548;BME280;60570;50.848;6.776;2024-03-25T00:19:51;99739.59;;;9.91;65.91
72548;BME280;60570;50.848;6.776;2024-03-25T00:20:52;99732.44;;;9.90;65.78
72548;BME280;60570;50.848;6.776;2024-03-25T00:21:52;99730.44;;;9.91;65.93
72548;BME280;60570;50.848;6.776;2024-03-25T00:22:54;99736.81;;;9.91;66.18
72548;BME280;60570;50.848;6.776;2024-03-25T00:23:54;99734.03;;;9.91;66.24
72548;BME280;60570;50.848;6.776;2024-03-25T00:24:56;99729.66;;;9.90;66.29
72548;BME280;60570;50.848;6.776;2024-03-25T00:25:57;99729.66;;;9.90;65.81
72548;BME280;60570;50.848;6.776;2024-03-25T00:27:00;99720.53;;;9.90;65.92
72548;BME280;60570;50.848;6.776;2024-03-25T00:28:00;99722.50;;;9.89;65.96
72548;BME280;60570;50.848;6.776;2024-03-25T00:29:01;99728.84;;;9.90;66.09
72548;BME280;60570;50.848;6.776;2024-03-25T00:30:02;99728.03;;;9.89;66.16
72548;BME280;60570;50.848;6.776;2024-03-25T00:31:02;99726.91;;;9.90;65.76
72548;BME280;60570;50.848;6.776;2024-03-25T00:32:04;99726.06;;;9.90;66.23
72548;BME280;60570;50.848;6.776;2024-03-25T00:33:05;99726.06;;;9.90;65.93
72548;BME280;60570;50.848;6.776;2024-03-25T00:34:06;99728.50;;;9.91;66.12
72548;BME280;60570;50.848;6.776;2024-03-25T00:35:07;99730.91;;;9.93;65.88
72548;BME280;60570;50.848;6.776;2024-03-25T00:36:09;99725.72;;;9.91;65.88
72548;BME280;60570;50.848;6.776;2024-03-25T00:37:10;99723.75;;;9.92;66.05
72548;BME280;60570;50.848;6.776;2024-03-25T00:38:10;99728.50;;;9.91;65.72
72548;BME280;60570;50.848;6.776;2024-03-25T00:39:11;99728.03;;;9.89;66.00
72548;BME280;60570;50.848;6.776;2024-03-25T00:40:13;99725.25;;;9.89;66.17
72548;BME280;60570;50.848;6.776;2024-03-25T00:41:13;99726.91;;;9.90;65.84
72548;BME280;60570;50.848;6.776;2024-03-25T00:42:15;99722.50;;;9.89;65.96
72548;BME280;60570;50.848;6.776;2024-03-25T00:43:16;99724.44;;;9.89;66.12
72548;BME280;60570;50.848;6.776;2024-03-25T00:44:16;99726.44;;;9.88;65.87
72548;BME280;60570;50.848;6.776;2024-03-25T00:45:18;99728.03;;;9.89;65.99
72548;BME280;60570;50.848;6.776;2024-03-25T00:46:18;99722.50;;;9.89;66.04
72548;BME280;60570;50.848;6.776;2024-03-25T00:47:19;99729.22;;;9.88;66.04
72548;BME280;60570;50.848;6.776;2024-03-25T00:48:20;99717.28;;;9.88;66.07
72548;BME280;60570;50.848;6.776;2024-03-25T00:49:20;99718.56;;;9.90;65.61
72548;BME280;60570;50.848;6.776;2024-03-25T00:50:21;99725.25;;;9.89;65.66
72548;BME280;60570;50.848;6.776;2024-03-25T00:51:23;99721.66;;;9.89;65.80
72548;BME280;60570;50.848;6.776;2024-03-25T00:52:23;99725.63;;;9.88;65.66
72548;BME280;60570;50.848;6.776;2024-03-25T00:53:24;99727.22;;;9.89;65.87
72548;BME280;60570;50.848;6.776;2024-03-25T00:54:24;99725.25;;;9.89;65.80
72548;BME280;60570;50.848;6.776;2024-03-25T00:55:25;99729.22;;;9.88;66.05
72548;BME280;60570;50.848;6.776;2024-03-25T00:56:26;99726.44;;;9.88;65.82
72548;BME280;60570;50.848;6.776;2024-03-25T00:57:28;99724.00;;;9.87;65.87
72548;BME280;60570;50.848;6.776;2024-03-25T00:58:29;99726.44;;;9.88;65.66
72548;BME280;60570;50.848;6.776;2024-03-25T00:59:30;99729.22;;;9.88;65.90
72548;BME280;60570;50.848;6.776;2024-03-25T01:00:32;99717.28;;;9.88;66.02
72548;BME280;60570;50.848;6.776;2024-03-25T01:01:32;99728.41;;;9.88;65.64
72548;BME280;60570;50.848;6.776;2024-03-25T01:02:35;99715.66;;;9.87;65.96
72548;BME280;60570;50.848;6.776;2024-03-25T01:03:37;99718.44;;;9.87;65.88
72548;BME280;60570;50.848;6.776;2024-03-25T01:04:38;99722.03;;;9.87;65.66
72548;BME280;60570;50.848;6.776;2024-03-25T01:05:39;99724.00;;;9.87;65.79
72548;BME280;60570;50.848;6.776;2024-03-25T01:06:39;99722.38;;;9.86;66.00
72548;BME280;60570;50.848;6.776;2024-03-25T01:07:40;99718.78;;;9.85;66.05
72548;BME280;60570;50.848;6.776;2024-03-25T01:08:41;99723.09;;;9.83;66.03
72548;BME280;60570;50.848;6.776;2024-03-25T01:09:42;99726.66;;;9.83;65.81
72548;BME280;60570;50.848;6.776;2024-03-25T01:10:42;99728.66;;;9.83;65.90
72548;BME280;60570;50.848;6.776;2024-03-25T01:11:44;99723.88;;;9.83;66.04
72548;BME280;60570;50.848;6.776;2024-03-25T01:12:46;99721.94;;;9.84;65.98
72548;BME280;60570;50.848;6.776;2024-03-25T01:13:46;99722.75;;;9.84;66.04
72548;BME280;60570;50.848;6.776;2024-03-25T01:14:46;99723.88;;;9.83;65.99
72548;BME280;60570;50.848;6.776;2024-03-25T01:15:48;99722.75;;;9.84;65.91
72548;BME280;60570;50.848;6.776;2024-03-25T01:16:49;99726.75;;;9.87;66.17
72548;BME280;60570;50.848;6.776;2024-03-25T01:17:49;99720.78;;;9.85;65.88
72548;BME280;60570;50.848;6.776;2024-03-25T01:18:49;99718.78;;;9.85;65.99
72548;BME280;60570;50.848;6.776;2024-03-25T01:19:51;99723.88;;;9.83;65.85
72548;BME280;60570;50.848;6.776;2024-03-25T01:20:51;99726.66;;;9.83;65.80
72548;BME280;60570;50.848;6.776;2024-03-25T01:21:52;99726.66;;;9.83;65.92
72548;BME280;60570;50.848;6.776;2024-03-25T01:22:54;99725.88;;;9.83;66.17
72548;BME280;60570;50.848;6.776;2024-03-25T01:23:55;99721.47;;;9.82;65.84
72548;BME280;60570;50.848;6.776;2024-03-25T01:24:55;99731.75;;;9.81;66.05
72548;BME280;60570;50.848;6.776;2024-03-25T01:25:56;99730.59;;;9.82;65.86
72548;BME280;60570;50.848;6.776;2024-03-25T01:26:56;99729.34;;;9.80;65.81
72548;BME280;60570;50.848;6.776;2024-03-25T01:27:59;99726.56;;;9.80;65.87
72548;BME280;60570;50.848;6.776;2024-03-25T01:29:00;99724.59;;;9.80;66.18
72548;BME280;60570;50.848;6.776;2024-03-25T01:30:00;99725.75;;;9.79;66.24
72548;BME280;60570;50.848;6.776;2024-03-25T01:31:03;99717.41;;;9.79;65.94
72548;BME280;60570;50.848;6.776;2024-03-25T01:32:05;99726.19;;;9.81;65.98
72548;BME280;60570;50.848;6.776;2024-03-25T01:33:06;99720.66;;;9.81;65.90
72548;BME280;60570;50.848;6.776;2024-03-25T01:34:06;99732.09;;;9.80;65.71
72548;BME280;60570;50.848;6.776;2024-03-25T01:35:08;99727.38;;;9.80;66.13
72548;BME280;60570;50.848;6.776;2024-03-25T01:36:08;99730.16;;;9.80;65.81
72548;BME280;60570;50.848;6.776;2024-03-25T01:37:11;99726.56;;;9.80;65.93
72548;BME280;60570;50.848;6.776;2024-03-25T01:38:11;99721.47;;;9.82;65.64
72548;BME280;60570;50.848;6.776;2024-03-25T01:39:13;99725.75;;;9.79;65.87
72548;BME280;60570;50.848;6.776;2024-03-25T01:40:14;99728.97;;;9.81;65.79
72548;BME280;60570;50.848;6.776;2024-03-25T01:41:14;99725.53;;;9.84;65.66
72548;BME280;60570;50.848;6.776;2024-03-25T01:42:20;99720.66;;;9.81;65.69
72548;BME280;60570;50.848;6.776;2024-03-25T01:43:22;99728.66;;;9.83;65.48
72548;BME280;60570;50.848;6.776;2024-03-25T01:44:23;99723.09;;;9.83;65.58
72548;BME280;60570;50.848;6.776;2024-03-25T01:45:24;99724.25;;;9.82;65.71
72548;BME280;60570;50.848;6.776;2024-03-25T01:46:25;99721.47;;;9.82;65.66
72548;BME280;60570;50.848;6.776;2024-03-25T01:47:26;99730.16;;;9.80;65.49
72548;BME280;60570;50.848;6.776;2024-03-25T01:48:28;99721.81;;;9.80;65.78
72548;BME280;60570;50.848;6.776;2024-03-25T01:49:28;99725.53;;;9.84;65.37
72548;BME280;60570;50.848;6.776;2024-03-25T01:50:29;99725.53;;;9.84;65.52
72548;BME280;60570;50.848;6.776;2024-03-25T01:51:32;99727.13;;;9.85;65.51
72548;BME280;60570;50.848;6.776;2024-03-25T01:52:33;99725.16;;;9.86;65.50
72548;BME280;60570;50.848;6.776;2024-03-25T01:53:34;99722.03;;;9.87;65.61
72548;BME280;60570;50.848;6.776;2024-03-25T01:54:35;99729.22;;;9.88;65.19
72548;BME280;60570;50.848;6.776;2024-03-25T01:55:36;99726.34;;;9.85;65.41
72548;BME280;60570;50.848;6.776;2024-03-25T01:56:38;99729.44;;;9.83;65.36
72548;BME280;60570;50.848;6.776;2024-03-25T01:57:38;99731.75;;;9.81;65.84
72548;BME280;60570;50.848;6.776;2024-03-25T01:58:40;99730.97;;;9.81;65.61
72548;BME280;60570;50.848;6.776;2024-03-25T01:59:42;99732.47;;;9.78;65.93
72548;BME280;60570;50.848;6.776;2024-03-25T02:00:43;99736.84;;;9.79;65.88
72548;BME280;60570;50.848;6.776;2024-03-25T02:01:44;99731.66;;;9.78;65.51
72548;BME280;60570;50.848;6.776;2024-03-25T02:02:46;99730.50;;;9.79;65.54
72548;BME280;60570;50.848;6.776;2024-03-25T02:03:48;99731.28;;;9.79;65.85
72548;BME280;60570;50.848;6.776;2024-03-25T02:04:49;99732.47;;;9.78;65.53
72548;BME280;60570;50.848;6.776;2024-03-25T02:05:53;99732.81;;;9.77;65.94
72548;BME280;60570;50.848;6.776;2024-03-25T02:06:55;99732.00;;;9.76;65.64
72548;BME280;60570;50.848;6.776;2024-03-25T02:07:59;99733.59;;;9.77;65.71
72548;BME280;60570;50.848;6.776;2024-03-25T02:09:00;99731.66;;;9.78;65.90
72548;BME280;60570;50.848;6.776;2024-03-25T02:10:04;99741.13;;;9.77;65.61
72548;BME280;60570;50.848;6.776;2024-03-25T02:11:05;99737.53;;;9.76;65.84
72548;BME280;60570;50.848;6.776;2024-03-25T02:12:07;99743.91;;;9.77;66.04
72548;BME280;60570;50.848;6.776;2024-03-25T02:13:09;99735.91;;;9.75;65.70
72548;BME280;60570;50.848;6.776;2024-03-25T02:14:12;99740.69;;;9.75;65.59
72548;BME280;60570;50.848;6.776;2024-03-25T02:15:12;99734.78;;;9.76;65.62
72548;BME280;60570;50.848;6.776;2024-03-25T02:16:13;99728.41;;;9.76;65.77
72548;BME280;60570;50.848;6.776;2024-03-25T02:17:14;99733.97;;;9.76;65.74
72548;BME280;60570;50.848;6.776;2024-03-25T02:18:15;99735.13;;;9.75;65.80
72548;BME280;60570;50.848;6.776;2024-03-25T02:19:16;99736.72;;;9.76;65.69
72548;BME280;60570;50.848;6.776;2024-03-25T02:20:17;99734.31;;;9.74;65.67
72548;BME280;60570;50.848;6.776;2024-03-25T02:21:18;99736.72;;;9.76;65.66
72548;BME280;60570;50.848;6.776;2024-03-25T02:22:19;99736.28;;;9.74;65.78
72548;BME280;60570;50.848;6.776;2024-03-25T02:23:19;99728.31;;;9.72;65.88
72548;BME280;60570;50.848;6.776;2024-03-25T02:24:20;99736.28;;;9.74;65.98
72548;BME280;60570;50.848;6.776;2024-03-25T02:25:23;99741.00;;;9.73;66.06
72548;BME280;60570;50.848;6.776;2024-03-25T02:26:25;99735.81;;;9.72;65.61
72548;BME280;60570;50.848;6.776;2024-03-25T02:27:26;99735.03;;;9.71;65.84
72548;BME280;60570;50.848;6.776;2024-03-25T02:28:28;99729.81;;;9.70;65.80
72548;BME280;60570;50.848;6.776;2024-03-25T02:29:33;99731.44;;;9.71;65.88
72548;BME280;60570;50.848;6.776;2024-03-25T02:30:33;99731.44;;;9.71;65.63
72548;BME280;60570;50.848;6.776;2024-03-25T02:31:33;99725.88;;;9.71;66.03
72548;BME280;60570;50.848;6.776;2024-03-25T02:32:34;99738.94;;;9.70;66.09
72548;BME280;60570;50.848;6.776;2024-03-25T02:33:35;99734.66;;;9.73;65.81
72548;BME280;60570;50.848;6.776;2024-03-25T02:34:36;99741.34;;;9.72;65.80
72548;BME280;60570;50.848;6.776;2024-03-25T02:35:37;99731.53;;;9.74;65.87
72548;BME280;60570;50.848;6.776;2024-03-25T02:36:39;99735.44;;;9.73;65.73
72548;BME280;60570;50.848;6.776;2024-03-25T02:37:40;99729.47;;;9.71;65.78
72548;BME280;60570;50.848;6.776;2024-03-25T02:38:41;99728.66;;;9.71;65.78
72548;BME280;60570;50.848;6.776;2024-03-25T02:39:41;99726.25;;;9.69;65.95
72548;BME280;60570;50.848;6.776;2024-03-25T02:40:42;99734.56;;;9.69;65.74
72548;BME280;60570;50.848;6.776;2024-03-25T02:41:45;99730.97;;;9.69;65.53
72548;BME280;60570;50.848;6.776;2024-03-25T02:42:46;99731.06;;;9.72;65.69
72548;BME280;60570;50.848;6.776;2024-03-25T02:43:47;99729.91;;;9.73;65.43
72548;BME280;60570;50.848;6.776;2024-03-25T02:44:47;99726.69;;;9.71;65.59
72548;BME280;60570;50.848;6.776;2024-03-25T02:45:49;99727.84;;;9.70;65.60
72548;BME280;60570;50.848;6.776;2024-03-25T02:46:50;99736.16;;;9.70;65.72
72548;BME280;60570;50.848;6.776;2024-03-25T02:47:50;99733.41;;;9.70;65.87
72548;BME280;60570;50.848;6.776;2024-03-25T02:48:51;99734.56;;;9.69;65.63
72548;BME280;60570;50.848;6.776;2024-03-25T02:49:52;99734.88;;;9.68;65.97
72548;BME280;60570;50.848;6.776;2024-03-25T02:50:53;99734.88;;;9.68;65.80
72548;BME280;60570;50.848;6.776;2024-03-25T02:51:53;99728.56;;;9.67;65.67
72548;BME280;60570;50.848;6.776;2024-03-25T02:52:54;99728.88;;;9.66;65.95
72548;BME280;60570;50.848;6.776;2024-03-25T02:53:55;99729.69;;;9.66;66.03
72548;BME280;60570;50.848;6.776;2024-03-25T02:54:56;99722.56;;;9.65;65.58
72548;BME280;60570;50.848;6.776;2024-03-25T02:55:56;99725.31;;;9.65;65.97
72548;BME280;60570;50.848;6.776;2024-03-25T02:56:58;99721.38;;;9.66;65.71
72548;BME280;60570;50.848;6.776;2024-03-25T02:57:59;99717.78;;;9.66;66.06
72548;BME280;60570;50.848;6.776;2024-03-25T02:59:00;99709.47;;;9.66;65.58
72548;BME280;60570;50.848;6.776;2024-03-25T03:00:00;99716.19;;;9.65;65.94
72548;BME280;60570;50.848;6.776;2024-03-25T03:01:01;99716.19;;;9.65;65.62
72548;BME280;60570;50.848;6.776;2024-03-25T03:02:03;99714.22;;;9.65;65.78
72548;BME280;60570;50.848;6.776;2024-03-25T03:03:03;99715.38;;;9.64;65.86
72548;BME280;60570;50.848;6.776;2024-03-25T03:04:04;99714.69;;;9.67;65.55
72548;BME280;60570;50.848;6.776;2024-03-25T03:05:05;99709.94;;;9.68;65.71
72548;BME280;60570;50.848;6.776;2024-03-25T03:06:05;99710.28;;;9.66;65.67
72548;BME280;60570;50.848;6.776;2024-03-25T03:07:07;99709.47;;;9.66;65.62
72548;BME280;60570;50.848;6.776;2024-03-25T03:08:07;99709.47;;;9.66;65.62
72548;BME280;60570;50.848;6.776;2024-03-25T03:09:08;99715.38;;;9.64;65.78
72548;BME280;60570;50.848;6.776;2024-03-25T03:10:08;99712.59;;;9.64;65.55
72548;BME280;60570;50.848;6.776;2024-03-25T03:11:09;99711.00;;;9.63;65.71
72548;BME280;60570;50.848;6.776;2024-03-25T03:12:12;99709.81;;;9.64;65.62
72548;BME280;60570;50.848;6.776;2024-03-25T03:13:13;99708.69;;;9.65;65.95
72548;BME280;60570;50.848;6.776;2024-03-25T03:14:14;99712.25;;;9.66;65.83
72548;BME280;60570;50.848;6.776;2024-03-25T03:15:15;99707.06;;;9.64;65.74
72548;BME280;60570;50.848;6.776;2024-03-25T03:16:16;99709.00;;;9.64;65.95
72548;BME280;60570;50.848;6.776;2024-03-25T03:17:17;99702.69;;;9.63;65.85
72548;BME280;60570;50.848;6.776;2024-03-25T03:18:17;99708.56;;;9.62;65.75
72548;BME280;60570;50.848;6.776;2024-03-25T03:19:18;99710.53;;;9.61;65.99
72548;BME280;60570;50.848;6.776;2024-03-25T03:20:19;99712.13;;;9.62;65.88
72548;BME280;60570;50.848;6.776;2024-03-25T03:21:20;99705.78;;;9.62;65.90
72548;BME280;60570;50.848;6.776;2024-03-25T03:22:20;99708.56;;;9.62;65.72
72548;BME280;60570;50.848;6.776;2024-03-25T03:23:22;99707.75;;;9.61;65.98
72548;BME280;60570;50.848;6.776;2024-03-25T03:24:22;99700.59;;;9.60;65.59
72548;BME280;60570;50.848;6.776;2024-03-25T03:25:23;99706.13;;;9.60;65.77
72548;BME280;60570;50.848;6.776;2024-03-25T03:26:23;99710.06;;;9.59;65.66
72548;BME280;60570;50.848;6.776;2024-03-25T03:27:28;99697.81;;;9.60;65.79
72548;BME280;60570;50.848;6.776;2024-03-25T03:28:28;99706.94;;;9.61;65.81
72548;BME280;60570;50.848;6.776;2024-03-25T03:29:29;99706.94;;;9.61;65.67
72548;BME280;60570;50.848;6.776;2024-03-25T03:30:30;99710.06;;;9.59;65.66
72548;BME280;60570;50.848;6.776;2024-03-25T03:31:31;99709.25;;;9.59;65.83
72548;BME280;60570;50.848;6.776;2024-03-25T03:32:32;99707.66;;;9.58;65.70
72548;BME280;60570;50.848;6.776;2024-03-25T03:33:32;99711.22;;;9.58;65.77
72548;BME280;60570;50.848;6.776;2024-03-25T03:34:33;99711.22;;;9.58;65.59
72548;BME280;60570;50.848;6.776;2024-03-25T03:35:34;99707.66;;;9.58;65.77
72548;BME280;60570;50.848;6.776;2024-03-25T03:36:34;99706.03;;;9.57;65.79
72548;BME280;60570;50.848;6.776;2024-03-25T03:37:35;99715.97;;;9.58;65.58
72548;BME280;60570;50.848;6.776;2024-03-25T03:38:35;99710.44;;;9.58;65.68
72548;BME280;60570;50.848;6.776;2024-03-25T03:39:37;99706.84;;;9.57;65.74
72548;BME280;60570;50.848;6.776;2024-03-25T03:40:37;99708.81;;;9.57;65.83
72548;BME280;60570;50.848;6.776;2024-03-25T03:41:38;99713.88;;;9.55;65.53
72548;BME280;60570;50.848;6.776;2024-03-25T03:42:40;99714.69;;;9.55;65.69
72548;BME280;60570;50.848;6.776;2024-03-25T03:43:41;99712.75;;;9.56;65.62
72548;BME280;60570;50.848;6.776;2024-03-25T03:44:42;99712.75;;;9.56;65.89
72548;BME280;60570;50.848;6.776;2024-03-25T03:45:42;99702.44;;;9.56;65.98
72548;BME280;60570;50.848;6.776;2024-03-25T03:46:43;99707.53;;;9.54;65.54
72548;BME280;60570;50.848;6.776;2024-03-25T03:47:44;99701.97;;;9.54;65.63
72548;BME280;60570;50.848;6.776;2024-03-25T03:48:45;99703.63;;;9.55;65.75
72548;BME280;60570;50.848;6.776;2024-03-25T03:49:46;99701.53;;;9.52;65.76
72548;BME280;60570;50.848;6.776;2024-03-25T03:50:47;99699.56;;;9.53;65.88
72548;BME280;60570;50.848;6.776;2024-03-25T03:51:47;99700.72;;;9.52;65.70
72548;BME280;60570;50.848;6.776;2024-03-25T03:52:48;99708.22;;;9.51;65.84
72548;BME280;60570;50.848;6.776;2024-03-25T03:53:49;99698.28;;;9.50;65.99
72548;BME280;60570;50.848;6.776;2024-03-25T03:54:49;99697.97;;;9.52;65.51
72548;BME280;60570;50.848;6.776;2024-03-25T03:55:54;99704.28;;;9.52;65.72
72548;BME280;60570;50.848;6.776;2024-03-25T03:56:55;99709.38;;;9.50;65.71
72548;BME280;60570;50.848;6.776;2024-03-25T03:57:58;99707.41;;;9.51;65.54
72548;BME280;60570;50.848;6.776;2024-03-25T03:58:58;99706.97;;;9.49;65.78
72548;BME280;60570;50.848;6.776;2024-03-25T03:59:59;99710.91;;;9.48;65.86
72548;BME280;60570;50.848;6.776;2024-03-25T04:00:59;99704.53;;;9.47;65.58
72548;BME280;60570;50.848;6.776;2024-03-25T04:02:01;99708.13;;;9.48;65.65
72548;BME280;60570;50.848;6.776;2024-03-25T04:03:03;99707.31;;;9.47;65.66
72548;BME280;60570;50.848;6.776;2024-03-25T04:04:04;99712.03;;;9.47;65.72
72548;BME280;60570;50.848;6.776;2024-03-25T04:05:05;99710.91;;;9.48;65.72
72548;BME280;60570;50.848;6.776;2024-03-25T04:06:07;99717.22;;;9.48;65.65
72548;BME280;60570;50.848;6.776;2024-03-25T04:07:08;99710.09;;;9.47;65.67
72548;BME280;60570;50.848;6.776;2024-03-25T04:08:08;99707.66;;;9.46;65.49
72548;BME280;60570;50.848;6.776;2024-03-25T04:09:09;99701.31;;;9.45;65.57
72548;BME280;60570;50.848;6.776;2024-03-25T04:10:10;99707.66;;;9.46;65.83
72548;BME280;60570;50.848;6.776;2024-03-25T04:11:11;99711.56;;;9.45;65.76
72548;BME280;60570;50.848;6.776;2024-03-25T04:12:11;99710.75;;;9.44;65.70
72548;BME280;60570;50.848;6.776;2024-03-25T04:13:13;99714.34;;;9.45;65.80
72548;BME280;60570;50.848;6.776;2024-03-25T04:14:15;99707.56;;;9.42;65.60
72548;BME280;60570;50.848;6.776;2024-03-25T04:15:15;99702.00;;;9.42;65.77
72548;BME280;60570;50.848;6.776;2024-03-25T04:16:17;99711.94;;;9.43;65.69
72548;BME280;60570;50.848;6.776;2024-03-25T04:17:19;99692.88;;;9.42;65.58
72548;BME280;60570;50.848;6.776;2024-03-25T04:18:20;99698.06;;;9.43;65.58
72548;BME280;60570;50.848;6.776;2024-03-25T04:19:23;99704.44;;;9.44;65.76
72548;BME280;60570;50.848;6.776;2024-03-25T04:20:25;99692.88;;;9.42;65.75
72548;BME280;60570;50.848;6.776;2024-03-25T04:21:26;99698.06;;;9.43;65.90
72548;BME280;60570;50.848;6.776;2024-03-25T04:22:26;99700.38;;;9.41;65.84
72548;BME280;60570;50.848;6.776;2024-03-25T04:23:27;99698.78;;;9.40;65.53
72548;BME280;60570;50.848;6.776;2024-03-25T04:24:28;99698.78;;;9.40;65.75
72548;BME280;60570;50.848;6.776;2024-03-25T04:25:29;99699.91;;;9.39;65.55
72548;BME280;60570;50.848;6.776;2024-03-25T04:26:30;99702.69;;;9.39;65.63
72548;BME280;60570;50.848;6.776;2024-03-25T04:27:31;99690.47;;;9.40;65.69
72548;BME280;60570;50.848;6.776;2024-03-25T04:28:33;99694.38;;;9.39;66.00
72548;BME280;60570;50.848;6.776;2024-03-25T04:29:34;99694.72;;;9.38;65.60
72548;BME280;60570;50.848;6.776;2024-03-25T04:30:35;99697.50;;;9.38;65.60
72548;BME280;60570;50.848;6.776;2024-03-25T04:31:36;99705.00;;;9.37;65.60
72548;BME280;60570;50.848;6.776;2024-03-25T04:32:38;99701.41;;;9.37;65.84
72548;BME280;60570;50.848;6.776;2024-03-25T04:33:39;99707.31;;;9.35;65.64
72548;BME280;60570;50.848;6.776;2024-03-25T04:34:40;99696.22;;;9.35;65.79
72548;BME280;60570;50.848;6.776;2024-03-25T04:35:41;99702.13;;;9.34;65.88
72548;BME280;60570;50.848;6.776;2024-03-25T04:36:43;99699.34;;;9.34;65.87
72548;BME280;60570;50.848;6.776;2024-03-25T04:37:43;99704.06;;;9.33;65.86
72548;BME280;60570;50.848;6.776;2024-03-25T04:38:44;99714.81;;;9.35;65.63
72548;BME280;60570;50.848;6.776;2024-03-25T04:39:44;99708.47;;;9.34;65.82
72548;BME280;60570;50.848;6.776;2024-03-25T04:40:45;99705.34;;;9.36;65.96
72548;BME280;60570;50.848;6.776;2024-03-25T04:41:45;99704.66;;;9.39;65.42
72548;BME280;60570;50.848;6.776;2024-03-25T04:42:46;99703.50;;;9.40;65.64
72548;BME280;60570;50.848;6.776;2024-03-25T04:43:48;99702.22;;;9.37;65.60
72548;BME280;60570;50.848;6.776;2024-03-25T04:44:49;99702.59;;;9.36;65.67
72548;BME280;60570;50.848;6.776;2024-03-25T04:45:49;99703.88;;;9.38;65.67
72548;BME280;60570;50.848;6.776;2024-03-25T04:46:50;99701.88;;;9.39;65.38
72548;BME280;60570;50.848;6.776;2024-03-25T04:47:50;99701.41;;;9.37;65.39
72548;BME280;60570;50.848;6.776;2024-03-25T04:48:51;99712.19;;;9.38;65.38
72548;BME280;60570;50.848;6.776;2024-03-25T04:49:51;99705.34;;;9.36;65.58
72548;BME280;60570;50.848;6.776;2024-03-25T04:50:52;99715.63;;;9.35;65.58
72548;BME280;60570;50.848;6.776;2024-03-25T04:51:52;99708.13;;;9.36;65.70
72548;BME280;60570;50.848;6.776;2024-03-25T04:52:53;99712.75;;;9.32;65.68
72548;BME280;60570;50.848;6.776;2024-03-25T04:53:53;99717.13;;;9.33;65.68
72548;BME280;60570;50.848;6.776;2024-03-25T04:54:54;99707.56;;;9.30;65.57
72548;BME280;60570;50.848;6.776;2024-03-25T04:55:55;99714.25;;;9.29;65.94
72548;BME280;60570;50.848;6.776;2024-03-25T04:56:55;99714.59;;;9.28;65.87
72548;BME280;60570;50.848;6.776;2024-03-25T04:57:56;99716.09;;;9.25;66.02
72548;BME280;60570;50.848;6.776;2024-03-25T04:58:58;99703.84;;;9.26;66.01
72548;BME280;60570;50.848;6.776;2024-03-25T04:59:58;99709.41;;;9.26;65.85
72548;BME280;60570;50.848;6.776;2024-03-25T05:00:59;99709.75;;;9.25;65.94
72548;BME280;60570;50.848;6.776;2024-03-25T05:01:59;99709.75;;;9.25;65.90
72548;BME280;60570;50.848;6.776;2024-03-25T05:03:00;99711.72;;;9.24;65.62
72548;BME280;60570;50.848;6.776;2024-03-25T05:04:00;99716.09;;;9.25;66.02
72548;BME280;60570;50.848;6.776;2024-03-25T05:05:01;99716.09;;;9.25;65.84
72548;BME280;60570;50.848;6.776;2024-03-25T05:06:02;99717.25;;;9.24;65.82
72548;BME280;60570;50.848;6.776;2024-03-25T05:07:03;99712.84;;;9.23;65.94
72548;BME280;60570;50.848;6.776;2024-03-25T05:08:04;99715.63;;;9.23;65.83
72548;BME280;60570;50.848;6.776;2024-03-25T05:09:04;99712.38;;;9.21;65.74
72548;BME280;60570;50.848;6.776;2024-03-25T05:10:06;99723.47;;;9.21;65.86
72548;BME280;60570;50.848;6.776;2024-03-25T05:11:06;99721.50;;;9.22;65.61
72548;BME280;60570;50.848;6.776;2024-03-25T05:12:07;99721.88;;;9.20;65.94
72548;BME280;60570;50.848;6.776;2024-03-25T05:13:07;99715.50;;;9.20;66.01
72548;BME280;60570;50.848;6.776;2024-03-25T05:14:09;99718.75;;;9.22;65.67
72548;BME280;60570;50.848;6.776;2024-03-25T05:15:10;99721.88;;;9.20;65.94
72548;BME280;60570;50.848;6.776;2024-03-25T05:16:11;99720.22;;;9.19;65.85
72548;BME280;60570;50.848;6.776;2024-03-25T05:17:11;99716.69;;;9.19;65.61
72548;BME280;60570;50.848;6.776;2024-03-25T05:18:12;99714.69;;;9.19;65.72
72548;BME280;60570;50.848;6.776;2024-03-25T05:19:12;99716.69;;;9.19;65.82
72548;BME280;60570;50.848;6.776;2024-03-25T05:20:13;99719.78;;;9.17;65.79
72548;BME280;60570;50.848;6.776;2024-03-25T05:21:14;99719.78;;;9.17;65.82
72548;BME280;60570;50.848;6.776;2024-03-25T05:22:14;99718.63;;;9.18;65.86
72548;BME280;60570;50.848;6.776;2024-03-25T05:23:15;99720.94;;;9.16;66.00
72548;BME280;60570;50.848;6.776;2024-03-25T05:24:15;99717.00;;;9.17;65.86
72548;BME280;60570;50.848;6.776;2024-03-25T05:25:16;99712.63;;;9.16;65.89
72548;BME280;60570;50.848;6.776;2024-03-25T05:26:16;99707.91;;;9.17;65.85
72548;BME280;60570;50.848;6.776;2024-03-25T05:27:17;99709.03;;;9.16;65.60